sensor_id;sensor_type;location;lat;lon;timestamp;P1;durP1;ratioP1;P2;durP2;ratioP2
15192;SDS011;7697;51.630;7.484;2022-12-18T00:02:59;32.77;;;18.10;;
15192;SDS011;7697;51.630;7.484;2022-12-18T00:08:02;30.57;;;18.47;;
15192;SDS011;7697;51.630;7.484;2022-12-18T00:13:04;33.57;;;18.10;;
15192;SDS011;7697;51.630;7.484;2022-12-18T00:18:06;32.87;;;18.20;;
15192;SDS011;7697;51.630;7.484;2022-12-18T00:23:09;35.13;;;18.50;;
15192;SDS011;7697;51.630;7.484;2022-12-18T00:28:11;35.83;;;19.53;;
15192;SDS011;7697;51.630;7.484;2022-12-18T00:33:13;31.23;;;17.43;;
15192;SDS011;7697;51.630;7.484;2022-12-18T00:38:16;30.43;;;18.07;;
15192;SDS011;7697;51.630;7.484;2022-12-18T00:43:17;30.00;;;17.93;;
15192;SDS011;7697;51.630;7.484;2022-12-18T00:48:19;30.23;;;16.87;;
15192;SDS011;7697;51.630;7.484;2022-12-18T00:53:22;29.97;;;17.27;;
15192;SDS011;7697;51.630;7.484;2022-12-18T00:58:24;22.50;;;14.40;;
15192;SDS011;7697;51.630;7.484;2022-12-18T01:03:26;30.47;;;16.47;;
15192;SDS011;7697;51.630;7.484;2022-12-18T01:08:28;28.93;;;16.13;;
15192;SDS011;7697;51.630;7.484;2022-12-18T01:13:30;30.83;;;16.93;;
15192;SDS011;7697;51.630;7.484;2022-12-18T01:18:32;29.70;;;17.03;;
15192;SDS011;7697;51.630;7.484;2022-12-18T01:23:35;30.43;;;16.70;;
15192;SDS011;7697;51.630;7.484;2022-12-18T01:28:37;31.50;;;16.83;;
15192;SDS011;7697;51.630;7.484;2022-12-18T01:33:39;28.40;;;15.33;;
15192;SDS011;7697;51.630;7.484;2022-12-18T01:38:44;25.77;;;16.10;;
15192;SDS011;7697;51.630;7.484;2022-12-18T01:43:48;32.20;;;17.50;;
15192;SDS011;7697;51.630;7.484;2022-12-18T01:48:53;32.73;;;17.07;;
15192;SDS011;7697;51.630;7.484;2022-12-18T01:53:59;33.80;;;18.07;;
15192;SDS011;7697;51.630;7.484;2022-12-18T01:59:01;32.83;;;17.20;;
15192;SDS011;7697;51.630;7.484;2022-12-18T02:04:18;28.87;;;16.40;;
15192;SDS011;7697;51.630;7.484;2022-12-18T02:09:24;29.10;;;16.87;;
15192;SDS011;7697;51.630;7.484;2022-12-18T02:14:34;29.23;;;16.00;;
15192;SDS011;7697;51.630;7.484;2022-12-18T02:19:44;25.20;;;14.50;;
15192;SDS011;7697;51.630;7.484;2022-12-18T02:24:58;29.40;;;15.97;;
15192;SDS011;7697;51.630;7.484;2022-12-18T02:30:07;27.50;;;16.00;;
15192;SDS011;7697;51.630;7.484;2022-12-18T02:35:13;27.70;;;15.20;;
15192;SDS011;7697;51.630;7.484;2022-12-18T02:40:17;31.10;;;16.77;;
15192;SDS011;7697;51.630;7.484;2022-12-18T02:45:23;28.37;;;16.67;;
15192;SDS011;7697;51.630;7.484;2022-12-18T02:50:26;26.10;;;15.80;;
15192;SDS011;7697;51.630;7.484;2022-12-18T02:55:38;25.40;;;15.77;;
15192;SDS011;7697;51.630;7.484;2022-12-18T03:00:53;26.93;;;17.00;;
15192;SDS011;7697;51.630;7.484;2022-12-18T03:06:04;29.93;;;17.10;;
15192;SDS011;7697;51.630;7.484;2022-12-18T03:11:10;31.50;;;16.43;;
15192;SDS011;7697;51.630;7.484;2022-12-18T03:16:16;27.33;;;14.50;;
15192;SDS011;7697;51.630;7.484;2022-12-18T03:21:26;31.37;;;14.77;;
15192;SDS011;7697;51.630;7.484;2022-12-18T03:26:31;29.80;;;15.17;;
15192;SDS011;7697;51.630;7.484;2022-12-18T03:31:36;30.07;;;16.63;;
15192;SDS011;7697;51.630;7.484;2022-12-18T03:36:40;26.93;;;14.53;;
15192;SDS011;7697;51.630;7.484;2022-12-18T03:41:43;22.13;;;13.83;;
15192;SDS011;7697;51.630;7.484;2022-12-18T03:46:51;23.17;;;14.97;;
15192;SDS011;7697;51.630;7.484;2022-12-18T03:52:01;25.50;;;13.60;;
15192;SDS011;7697;51.630;7.484;2022-12-18T03:57:06;22.00;;;13.53;;
15192;SDS011;7697;51.630;7.484;2022-12-18T04:02:14;24.97;;;14.60;;
15192;SDS011;7697;51.630;7.484;2022-12-18T04:07:17;22.70;;;13.17;;
15192;SDS011;7697;51.630;7.484;2022-12-18T04:12:20;24.03;;;13.03;;
15192;SDS011;7697;51.630;7.484;2022-12-18T04:17:23;25.87;;;14.43;;
15192;SDS011;7697;51.630;7.484;2022-12-18T04:22:25;28.63;;;15.10;;
15192;SDS011;7697;51.630;7.484;2022-12-18T04:27:26;25.43;;;14.73;;
15192;SDS011;7697;51.630;7.484;2022-12-18T04:32:29;24.77;;;14.00;;
15192;SDS011;7697;51.630;7.484;2022-12-18T04:37:31;27.23;;;15.17;;
15192;SDS011;7697;51.630;7.484;2022-12-18T04:42:33;25.43;;;15.17;;
15192;SDS011;7697;51.630;7.484;2022-12-18T04:47:36;24.17;;;13.13;;
15192;SDS011;7697;51.630;7.484;2022-12-18T04:52:37;27.63;;;13.83;;
15192;SDS011;7697;51.630;7.484;2022-12-18T04:57:39;23.33;;;13.67;;
15192;SDS011;7697;51.630;7.484;2022-12-18T05:02:42;29.90;;;16.17;;
15192;SDS011;7697;51.630;7.484;2022-12-18T05:07:43;28.70;;;16.43;;
15192;SDS011;7697;51.630;7.484;2022-12-18T05:12:45;30.50;;;16.30;;
15192;SDS011;7697;51.630;7.484;2022-12-18T05:18:00;27.70;;;15.23;;
15192;SDS011;7697;51.630;7.484;2022-12-18T05:23:05;26.73;;;15.73;;
15192;SDS011;7697;51.630;7.484;2022-12-18T05:28:06;28.83;;;15.80;;
15192;SDS011;7697;51.630;7.484;2022-12-18T05:33:09;29.77;;;15.60;;
15192;SDS011;7697;51.630;7.484;2022-12-18T05:38:11;29.60;;;15.30;;
15192;SDS011;7697;51.630;7.484;2022-12-18T05:43:12;30.97;;;16.53;;
15192;SDS011;7697;51.630;7.484;2022-12-18T05:48:16;26.77;;;14.60;;
15192;SDS011;7697;51.630;7.484;2022-12-18T05:53:19;26.00;;;14.07;;
15192;SDS011;7697;51.630;7.484;2022-12-18T05:58:21;23.03;;;13.47;;
15192;SDS011;7697;51.630;7.484;2022-12-18T06:03:24;22.07;;;12.23;;
15192;SDS011;7697;51.630;7.484;2022-12-18T06:08:26;23.43;;;12.47;;
15192;SDS011;7697;51.630;7.484;2022-12-18T06:13:27;19.97;;;10.83;;
15192;SDS011;7697;51.630;7.484;2022-12-18T06:18:31;19.10;;;11.33;;
15192;SDS011;7697;51.630;7.484;2022-12-18T06:23:32;19.87;;;11.37;;
15192;SDS011;7697;51.630;7.484;2022-12-18T06:28:34;17.37;;;11.13;;
15192;SDS011;7697;51.630;7.484;2022-12-18T06:33:37;17.90;;;10.53;;
15192;SDS011;7697;51.630;7.484;2022-12-18T06:38:40;19.50;;;11.13;;
15192;SDS011;7697;51.630;7.484;2022-12-18T06:43:43;21.30;;;11.90;;
15192;SDS011;7697;51.630;7.484;2022-12-18T06:48:47;22.90;;;13.33;;
15192;SDS011;7697;51.630;7.484;2022-12-18T06:53:50;20.43;;;12.53;;
15192;SDS011;7697;51.630;7.484;2022-12-18T06:58:52;21.00;;;11.83;;
15192;SDS011;7697;51.630;7.484;2022-12-18T07:03:56;21.03;;;13.07;;
15192;SDS011;7697;51.630;7.484;2022-12-18T07:08:58;18.17;;;11.93;;
15192;SDS011;7697;51.630;7.484;2022-12-18T07:14:00;22.20;;;12.97;;
15192;SDS011;7697;51.630;7.484;2022-12-18T07:19:03;20.20;;;12.03;;
15192;SDS011;7697;51.630;7.484;2022-12-18T07:24:05;19.73;;;12.17;;
15192;SDS011;7697;51.630;7.484;2022-12-18T07:29:07;20.03;;;11.17;;
15192;SDS011;7697;51.630;7.484;2022-12-18T07:34:11;19.80;;;12.03;;
15192;SDS011;7697;51.630;7.484;2022-12-18T07:39:13;18.70;;;10.93;;
15192;SDS011;7697;51.630;7.484;2022-12-18T07:44:15;15.97;;;9.87;;
15192;SDS011;7697;51.630;7.484;2022-12-18T07:49:18;14.57;;;9.27;;
15192;SDS011;7697;51.630;7.484;2022-12-18T07:54:19;16.90;;;8.60;;
15192;SDS011;7697;51.630;7.484;2022-12-18T07:59:21;13.37;;;7.93;;
15192;SDS011;7697;51.630;7.484;2022-12-18T08:04:24;16.83;;;8.90;;
15192;SDS011;7697;51.630;7.484;2022-12-18T08:09:26;15.60;;;8.83;;
15192;SDS011;7697;51.630;7.484;2022-12-18T08:14:27;13.43;;;8.73;;
15192;SDS011;7697;51.630;7.484;2022-12-18T08:19:30;16.90;;;9.47;;
15192;SDS011;7697;51.630;7.484;2022-12-18T08:24:32;17.20;;;10.07;;
15192;SDS011;7697;51.630;7.484;2022-12-18T08:29:34;16.80;;;9.23;;
15192;SDS011;7697;51.630;7.484;2022-12-18T08:34:37;14.97;;;8.00;;
15192;SDS011;7697;51.630;7.484;2022-12-18T08:39:38;13.63;;;8.97;;
15192;SDS011;7697;51.630;7.484;2022-12-18T08:44:40;13.30;;;8.63;;
15192;SDS011;7697;51.630;7.484;2022-12-18T08:49:43;14.60;;;8.67;;
15192;SDS011;7697;51.630;7.484;2022-12-18T08:54:45;14.27;;;9.10;;
15192;SDS011;7697;51.630;7.484;2022-12-18T08:59:46;13.67;;;9.03;;
15192;SDS011;7697;51.630;7.484;2022-12-18T09:04:49;15.40;;;8.40;;
15192;SDS011;7697;51.630;7.484;2022-12-18T09:09:51;14.60;;;8.83;;
15192;SDS011;7697;51.630;7.484;2022-12-18T09:14:53;14.33;;;9.87;;
15192;SDS011;7697;51.630;7.484;2022-12-18T09:19:56;14.93;;;9.20;;
15192;SDS011;7697;51.630;7.484;2022-12-18T09:24:57;14.20;;;9.33;;
15192;SDS011;7697;51.630;7.484;2022-12-18T09:29:59;12.83;;;8.07;;
15192;SDS011;7697;51.630;7.484;2022-12-18T09:35:02;14.90;;;8.30;;
15192;SDS011;7697;51.630;7.484;2022-12-18T09:40:05;11.87;;;8.40;;
15192;SDS011;7697;51.630;7.484;2022-12-18T09:45:07;13.73;;;9.23;;
15192;SDS011;7697;51.630;7.484;2022-12-18T09:50:19;13.47;;;8.50;;
15192;SDS011;7697;51.630;7.484;2022-12-18T09:55:28;16.53;;;8.80;;
15192;SDS011;7697;51.630;7.484;2022-12-18T10:00:33;13.80;;;9.30;;
15192;SDS011;7697;51.630;7.484;2022-12-18T10:05:37;13.73;;;8.80;;
15192;SDS011;7697;51.630;7.484;2022-12-18T10:10:47;13.53;;;8.73;;
15192;SDS011;7697;51.630;7.484;2022-12-18T10:16:01;15.47;;;9.00;;
15192;SDS011;7697;51.630;7.484;2022-12-18T10:21:12;12.57;;;8.13;;
15192;SDS011;7697;51.630;7.484;2022-12-18T10:26:19;14.57;;;9.63;;
15192;SDS011;7697;51.630;7.484;2022-12-18T10:31:22;11.50;;;7.57;;
15192;SDS011;7697;51.630;7.484;2022-12-18T10:36:26;10.93;;;7.67;;
15192;SDS011;7697;51.630;7.484;2022-12-18T10:41:28;12.50;;;8.23;;
15192;SDS011;7697;51.630;7.484;2022-12-18T10:46:30;12.77;;;8.20;;
15192;SDS011;7697;51.630;7.484;2022-12-18T10:51:35;12.03;;;8.67;;
15192;SDS011;7697;51.630;7.484;2022-12-18T10:56:38;13.03;;;8.67;;
15192;SDS011;7697;51.630;7.484;2022-12-18T11:01:47;12.63;;;8.57;;
15192;SDS011;7697;51.630;7.484;2022-12-18T11:06:56;14.80;;;9.60;;
15192;SDS011;7697;51.630;7.484;2022-12-18T11:12:01;12.60;;;8.67;;
15192;SDS011;7697;51.630;7.484;2022-12-18T11:17:16;14.67;;;8.43;;
15192;SDS011;7697;51.630;7.484;2022-12-18T11:22:23;11.23;;;8.03;;
15192;SDS011;7697;51.630;7.484;2022-12-18T11:27:27;17.40;;;7.83;;
15192;SDS011;7697;51.630;7.484;2022-12-18T11:32:32;13.03;;;8.43;;
15192;SDS011;7697;51.630;7.484;2022-12-18T11:37:38;12.90;;;8.17;;
15192;SDS011;7697;51.630;7.484;2022-12-18T11:42:45;20.53;;;12.87;;
15192;SDS011;7697;51.630;7.484;2022-12-18T11:47:52;13.83;;;9.87;;
15192;SDS011;7697;51.630;7.484;2022-12-18T11:53:00;14.60;;;10.00;;
15192;SDS011;7697;51.630;7.484;2022-12-18T11:58:04;21.23;;;14.03;;
15192;SDS011;7697;51.630;7.484;2022-12-18T12:08:51;13.00;;;7.77;;
15192;SDS011;7697;51.630;7.484;2022-12-18T12:14:15;10.70;;;7.80;;
15192;SDS011;7697;51.630;7.484;2022-12-18T12:19:31;11.00;;;7.10;;
15192;SDS011;7697;51.630;7.484;2022-12-18T12:24:44;10.23;;;7.70;;
15192;SDS011;7697;51.630;7.484;2022-12-18T12:29:58;12.87;;;7.57;;
15192;SDS011;7697;51.630;7.484;2022-12-18T12:35:08;11.87;;;6.93;;
15192;SDS011;7697;51.630;7.484;2022-12-18T12:40:25;9.63;;;6.70;;
15192;SDS011;7697;51.630;7.484;2022-12-18T12:45:30;11.30;;;7.57;;
15192;SDS011;7697;51.630;7.484;2022-12-18T12:50:37;10.73;;;7.33;;
15192;SDS011;7697;51.630;7.484;2022-12-18T12:55:42;10.60;;;7.80;;
15192;SDS011;7697;51.630;7.484;2022-12-18T13:00:46;11.40;;;8.67;;
15192;SDS011;7697;51.630;7.484;2022-12-18T13:05:58;12.53;;;9.10;;
15192;SDS011;7697;51.630;7.484;2022-12-18T13:11:11;16.27;;;9.93;;
15192;SDS011;7697;51.630;7.484;2022-12-18T13:16:50;12.23;;;8.43;;
15192;SDS011;7697;51.630;7.484;2022-12-18T13:21:52;11.30;;;8.27;;
15192;SDS011;7697;51.630;7.484;2022-12-18T13:26:57;22.03;;;12.73;;
15192;SDS011;7697;51.630;7.484;2022-12-18T13:31:59;14.53;;;9.47;;
15192;SDS011;7697;51.630;7.484;2022-12-18T13:42:42;14.50;;;10.50;;
15192;SDS011;7697;51.630;7.484;2022-12-18T13:48:02;11.43;;;8.13;;
15192;SDS011;7697;51.630;7.484;2022-12-18T13:53:04;11.50;;;8.63;;
15192;SDS011;7697;51.630;7.484;2022-12-18T13:58:11;11.63;;;8.07;;
15192;SDS011;7697;51.630;7.484;2022-12-18T14:03:18;11.17;;;8.17;;
15192;SDS011;7697;51.630;7.484;2022-12-18T14:08:21;12.37;;;9.63;;
15192;SDS011;7697;51.630;7.484;2022-12-18T14:13:29;12.00;;;8.97;;
15192;SDS011;7697;51.630;7.484;2022-12-18T14:18:33;12.30;;;8.83;;
15192;SDS011;7697;51.630;7.484;2022-12-18T14:23:42;12.23;;;8.93;;
15192;SDS011;7697;51.630;7.484;2022-12-18T14:28:46;14.07;;;9.47;;
15192;SDS011;7697;51.630;7.484;2022-12-18T14:33:48;12.97;;;9.67;;
15192;SDS011;7697;51.630;7.484;2022-12-18T14:38:50;14.17;;;8.50;;
15192;SDS011;7697;51.630;7.484;2022-12-18T14:43:55;12.43;;;9.00;;
15192;SDS011;7697;51.630;7.484;2022-12-18T14:49:17;11.80;;;8.40;;
15192;SDS011;7697;51.630;7.484;2022-12-18T14:54:23;12.13;;;8.50;;
15192;SDS011;7697;51.630;7.484;2022-12-18T14:59:27;17.73;;;10.43;;
15192;SDS011;7697;51.630;7.484;2022-12-18T15:04:30;14.77;;;10.23;;
15192;SDS011;7697;51.630;7.484;2022-12-18T15:09:35;14.03;;;9.10;;
15192;SDS011;7697;51.630;7.484;2022-12-18T15:14:40;14.03;;;9.33;;
15192;SDS011;7697;51.630;7.484;2022-12-18T15:19:42;11.10;;;7.90;;
15192;SDS011;7697;51.630;7.484;2022-12-18T15:24:45;12.53;;;9.13;;
15192;SDS011;7697;51.630;7.484;2022-12-18T15:30:00;13.00;;;8.20;;
15192;SDS011;7697;51.630;7.484;2022-12-18T15:35:07;15.67;;;11.07;;
15192;SDS011;7697;51.630;7.484;2022-12-18T15:40:15;16.10;;;10.43;;
15192;SDS011;7697;51.630;7.484;2022-12-18T15:45:19;12.67;;;9.57;;
15192;SDS011;7697;51.630;7.484;2022-12-18T15:50:21;12.17;;;8.77;;
15192;SDS011;7697;51.630;7.484;2022-12-18T15:55:23;12.73;;;9.13;;
15192;SDS011;7697;51.630;7.484;2022-12-18T16:00:44;13.67;;;9.50;;
15192;SDS011;7697;51.630;7.484;2022-12-18T16:05:46;17.23;;;12.00;;
15192;SDS011;7697;51.630;7.484;2022-12-18T16:10:47;14.27;;;10.50;;
15192;SDS011;7697;51.630;7.484;2022-12-18T16:15:50;16.17;;;10.87;;
15192;SDS011;7697;51.630;7.484;2022-12-18T16:20:52;17.07;;;11.23;;
15192;SDS011;7697;51.630;7.484;2022-12-18T16:25:54;16.37;;;11.67;;
15192;SDS011;7697;51.630;7.484;2022-12-18T16:30:57;13.57;;;10.10;;
15192;SDS011;7697;51.630;7.484;2022-12-18T16:35:58;13.97;;;10.13;;
15192;SDS011;7697;51.630;7.484;2022-12-18T16:41:00;15.40;;;10.80;;
15192;SDS011;7697;51.630;7.484;2022-12-18T16:46:20;15.33;;;11.27;;
15192;SDS011;7697;51.630;7.484;2022-12-18T16:51:22;14.07;;;10.10;;
15192;SDS011;7697;51.630;7.484;2022-12-18T16:56:23;17.90;;;10.93;;
15192;SDS011;7697;51.630;7.484;2022-12-18T17:01:27;18.23;;;11.83;;
15192;SDS011;7697;51.630;7.484;2022-12-18T17:06:31;18.13;;;12.00;;
15192;SDS011;7697;51.630;7.484;2022-12-18T17:11:35;17.17;;;11.17;;
15192;SDS011;7697;51.630;7.484;2022-12-18T17:16:38;16.50;;;10.97;;
15192;SDS011;7697;51.630;7.484;2022-12-18T17:21:40;16.97;;;11.57;;
15192;SDS011;7697;51.630;7.484;2022-12-18T17:26:41;21.07;;;11.70;;
15192;SDS011;7697;51.630;7.484;2022-12-18T17:31:45;20.57;;;12.13;;
15192;SDS011;7697;51.630;7.484;2022-12-18T17:36:47;20.97;;;12.33;;
15192;SDS011;7697;51.630;7.484;2022-12-18T17:41:48;17.47;;;12.40;;
15192;SDS011;7697;51.630;7.484;2022-12-18T17:46:52;20.27;;;12.70;;
15192;SDS011;7697;51.630;7.484;2022-12-18T17:51:53;17.67;;;11.57;;
15192;SDS011;7697;51.630;7.484;2022-12-18T17:56:55;19.27;;;12.20;;
15192;SDS011;7697;51.630;7.484;2022-12-18T18:01:58;20.00;;;13.03;;
15192;SDS011;7697;51.630;7.484;2022-12-18T18:07:00;18.70;;;12.17;;
15192;SDS011;7697;51.630;7.484;2022-12-18T18:12:02;16.87;;;11.83;;
15192;SDS011;7697;51.630;7.484;2022-12-18T18:17:22;20.30;;;13.77;;
15192;SDS011;7697;51.630;7.484;2022-12-18T18:22:24;20.53;;;13.37;;
15192;SDS011;7697;51.630;7.484;2022-12-18T18:27:26;21.03;;;13.93;;
15192;SDS011;7697;51.630;7.484;2022-12-18T18:32:29;21.43;;;13.60;;
15192;SDS011;7697;51.630;7.484;2022-12-18T18:37:31;18.93;;;12.40;;
15192;SDS011;7697;51.630;7.484;2022-12-18T18:42:33;22.17;;;13.83;;
15192;SDS011;7697;51.630;7.484;2022-12-18T18:47:36;21.23;;;13.47;;
15192;SDS011;7697;51.630;7.484;2022-12-18T18:52:38;22.53;;;13.43;;
15192;SDS011;7697;51.630;7.484;2022-12-18T18:57:39;25.97;;;17.60;;
15192;SDS011;7697;51.630;7.484;2022-12-18T19:02:43;25.47;;;15.60;;
15192;SDS011;7697;51.630;7.484;2022-12-18T19:07:45;21.33;;;13.50;;
15192;SDS011;7697;51.630;7.484;2022-12-18T19:12:47;23.10;;;14.70;;
15192;SDS011;7697;51.630;7.484;2022-12-18T19:18:07;22.03;;;14.10;;
15192;SDS011;7697;51.630;7.484;2022-12-18T19:23:09;23.80;;;14.63;;
15192;SDS011;7697;51.630;7.484;2022-12-18T19:28:11;26.23;;;15.20;;
15192;SDS011;7697;51.630;7.484;2022-12-18T19:33:14;25.03;;;15.17;;
15192;SDS011;7697;51.630;7.484;2022-12-18T19:38:15;24.17;;;15.40;;
15192;SDS011;7697;51.630;7.484;2022-12-18T19:43:17;24.73;;;14.63;;
15192;SDS011;7697;51.630;7.484;2022-12-18T19:48:20;24.43;;;14.77;;
15192;SDS011;7697;51.630;7.484;2022-12-18T19:53:22;23.80;;;15.10;;
15192;SDS011;7697;51.630;7.484;2022-12-18T19:58:23;24.73;;;15.60;;
15192;SDS011;7697;51.630;7.484;2022-12-18T20:03:27;23.27;;;14.77;;
15192;SDS011;7697;51.630;7.484;2022-12-18T20:08:29;27.10;;;15.03;;
15192;SDS011;7697;51.630;7.484;2022-12-18T20:13:31;27.70;;;15.47;;
15192;SDS011;7697;51.630;7.484;2022-12-18T20:18:34;26.23;;;14.97;;
15192;SDS011;7697;51.630;7.484;2022-12-18T20:23:36;26.67;;;16.90;;
15192;SDS011;7697;51.630;7.484;2022-12-18T20:28:38;26.77;;;15.03;;
15192;SDS011;7697;51.630;7.484;2022-12-18T20:33:41;25.57;;;15.87;;
15192;SDS011;7697;51.630;7.484;2022-12-18T20:38:42;28.10;;;17.00;;
15192;SDS011;7697;51.630;7.484;2022-12-18T20:43:44;24.03;;;14.97;;
15192;SDS011;7697;51.630;7.484;2022-12-18T20:48:48;25.97;;;15.20;;
15192;SDS011;7697;51.630;7.484;2022-12-18T20:53:49;24.03;;;14.90;;
15192;SDS011;7697;51.630;7.484;2022-12-18T20:58:54;24.33;;;15.57;;
15192;SDS011;7697;51.630;7.484;2022-12-18T21:03:57;24.80;;;14.47;;
15192;SDS011;7697;51.630;7.484;2022-12-18T21:08:59;26.73;;;15.43;;
15192;SDS011;7697;51.630;7.484;2022-12-18T21:14:01;27.37;;;16.57;;
15192;SDS011;7697;51.630;7.484;2022-12-18T21:19:05;25.50;;;15.10;;
15192;SDS011;7697;51.630;7.484;2022-12-18T21:24:07;26.30;;;16.13;;
15192;SDS011;7697;51.630;7.484;2022-12-18T21:29:10;26.63;;;15.33;;
15192;SDS011;7697;51.630;7.484;2022-12-18T21:34:16;26.23;;;14.90;;
15192;SDS011;7697;51.630;7.484;2022-12-18T21:39:19;22.53;;;13.97;;
15192;SDS011;7697;51.630;7.484;2022-12-18T21:44:21;23.47;;;14.40;;
15192;SDS011;7697;51.630;7.484;2022-12-18T21:49:24;24.53;;;14.30;;
15192;SDS011;7697;51.630;7.484;2022-12-18T21:54:27;26.53;;;16.17;;
15192;SDS011;7697;51.630;7.484;2022-12-18T21:59:30;24.33;;;15.37;;
15192;SDS011;7697;51.630;7.484;2022-12-18T22:04:35;24.93;;;14.97;;
15192;SDS011;7697;51.630;7.484;2022-12-18T22:09:37;25.33;;;15.30;;
15192;SDS011;7697;51.630;7.484;2022-12-18T22:14:39;24.00;;;14.97;;
15192;SDS011;7697;51.630;7.484;2022-12-18T22:19:42;25.80;;;14.90;;
15192;SDS011;7697;51.630;7.484;2022-12-18T22:24:44;24.73;;;14.93;;
15192;SDS011;7697;51.630;7.484;2022-12-18T22:29:45;25.10;;;15.43;;
15192;SDS011;7697;51.630;7.484;2022-12-18T22:35:07;25.97;;;15.77;;
15192;SDS011;7697;51.630;7.484;2022-12-18T22:40:10;23.83;;;14.87;;
15192;SDS011;7697;51.630;7.484;2022-12-18T22:45:18;26.87;;;15.67;;
15192;SDS011;7697;51.630;7.484;2022-12-18T22:50:21;23.63;;;14.03;;
15192;SDS011;7697;51.630;7.484;2022-12-18T22:55:23;27.33;;;15.97;;
15192;SDS011;7697;51.630;7.484;2022-12-18T23:00:25;29.63;;;15.10;;
15192;SDS011;7697;51.630;7.484;2022-12-18T23:05:29;24.57;;;15.30;;
15192;SDS011;7697;51.630;7.484;2022-12-18T23:10:30;24.60;;;14.83;;
15192;SDS011;7697;51.630;7.484;2022-12-18T23:15:33;23.50;;;14.93;;
15192;SDS011;7697;51.630;7.484;2022-12-18T23:20:36;28.67;;;16.23;;
15192;SDS011;7697;51.630;7.484;2022-12-18T23:25:38;26.93;;;15.73;;
15192;SDS011;7697;51.630;7.484;2022-12-18T23:30:40;27.93;;;16.37;;
15192;SDS011;7697;51.630;7.484;2022-12-18T23:35:43;25.93;;;15.60;;
15192;SDS011;7697;51.630;7.484;2022-12-18T23:40:45;27.90;;;16.33;;
15192;SDS011;7697;51.630;7.484;2022-12-18T23:45:46;26.73;;;15.67;;
15192;SDS011;7697;51.630;7.484;2022-12-18T23:50:49;22.90;;;14.80;;
15192;SDS011;7697;51.630;7.484;2022-12-18T23:55:51;25.83;;;15.47;;
